sensor_id;sensor_type;location;lat;lon;timestamp;pressure;altitude;pressure_sealevel;temperature;humidity
30919;BME280;76545;51.606;5.884;2024-03-02T00:00:06;99773.69;;;7.51;83.58
30919;BME280;76545;51.606;5.884;2024-03-02T00:02:44;99767.41;;;7.47;83.40
30919;BME280;76545;51.606;5.884;2024-03-02T00:05:17;99763.22;;;7.51;83.71
30919;BME280;76545;51.606;5.884;2024-03-02T00:07:45;99762.34;;;7.50;83.75
30919;BME280;76545;51.606;5.884;2024-03-02T00:10:16;99769.38;;;7.51;83.92
30919;BME280;76545;51.606;5.884;2024-03-02T00:12:46;99771.19;;;7.53;84.35
30919;BME280;76545;51.606;5.884;2024-03-02T00:18:19;99770.34;;;7.54;84.27
30919;BME280;76545;51.606;5.884;2024-03-02T00:20:46;99766.81;;;7.53;84.02
30919;BME280;76545;51.606;5.884;2024-03-02T00:23:16;99765.94;;;7.53;83.83
30919;BME280;76545;51.606;5.884;2024-03-02T00:25:53;99772.94;;;7.54;84.13
30919;BME280;76545;51.606;5.884;2024-03-02T00:31:12;99773.69;;;7.51;84.38
30919;BME280;76545;51.606;5.884;2024-03-02T00:36:08;99774.72;;;7.55;84.33
30919;BME280;76545;51.606;5.884;2024-03-02T00:38:48;99772.88;;;7.52;83.85
30919;BME280;76545;51.606;5.884;2024-03-02T00:41:17;99780.81;;;7.54;83.76
30919;BME280;76545;51.606;5.884;2024-03-02T00:44:03;99784.41;;;7.56;84.20
30919;BME280;76545;51.606;5.884;2024-03-02T00:46:34;99800.84;;;7.53;84.43
30919;BME280;76545;51.606;5.884;2024-03-02T00:49:03;99803.63;;;7.56;84.86
30919;BME280;76545;51.606;5.884;2024-03-02T00:51:31;99800.84;;;7.53;84.67
30919;BME280;76545;51.606;5.884;2024-03-02T00:54:07;99810.66;;;7.57;84.55
30919;BME280;76545;51.606;5.884;2024-03-02T00:56:35;99813.06;;;7.53;84.20
30919;BME280;76545;51.606;5.884;2024-03-02T00:59:01;99823.53;;;7.53;84.09
30919;BME280;76545;51.606;5.884;2024-03-02T01:01:27;99831.91;;;7.45;84.61
30919;BME280;76545;51.606;5.884;2024-03-02T01:03:53;99862.66;;;7.49;84.17
30919;BME280;76545;51.606;5.884;2024-03-02T01:06:19;99877.38;;;7.47;83.82
30919;BME280;76545;51.606;5.884;2024-03-02T01:08:45;99888.75;;;7.48;85.42
30919;BME280;76545;51.606;5.884;2024-03-02T01:11:13;99880.84;;;7.46;85.04
30919;BME280;76545;51.606;5.884;2024-03-02T01:13:39;99884.44;;;7.48;85.56
30919;BME280;76545;51.606;5.884;2024-03-02T01:16:05;99895.72;;;7.47;85.89
30919;BME280;76545;51.606;5.884;2024-03-02T01:18:31;99885.91;;;7.43;86.32
30919;BME280;76545;51.606;5.884;2024-03-02T01:20:57;99893.09;;;7.47;86.29
30919;BME280;76545;51.606;5.884;2024-03-02T01:23:23;99897.34;;;7.45;86.69
30919;BME280;76545;51.606;5.884;2024-03-02T01:25:51;99892.94;;;7.44;86.42
30919;BME280;76545;51.606;5.884;2024-03-02T01:28:18;99893.75;;;7.43;86.17
30919;BME280;76545;51.606;5.884;2024-03-02T01:30:44;99894.59;;;7.42;86.70
30919;BME280;76545;51.606;5.884;2024-03-02T01:33:10;99897.34;;;7.45;86.87
30919;BME280;76545;51.606;5.884;2024-03-02T01:35:36;99905.72;;;7.38;85.96
30919;BME280;76545;51.606;5.884;2024-03-02T01:38:03;99903.25;;;7.41;86.10
30919;BME280;76545;51.606;5.884;2024-03-02T01:40:30;99902.38;;;7.40;85.35
30919;BME280;76545;51.606;5.884;2024-03-02T01:42:56;99901.72;;;7.45;86.72
30919;BME280;76545;51.606;5.884;2024-03-02T01:45:25;99898.00;;;7.41;85.87
30919;BME280;76545;51.606;5.884;2024-03-02T01:47:51;99896.97;;;7.37;86.11
30919;BME280;76545;51.606;5.884;2024-03-02T01:50:28;99890.81;;;7.37;85.71
30919;BME280;76545;51.606;5.884;2024-03-02T01:52:55;99889.03;;;7.36;85.52
30919;BME280;76545;51.606;5.884;2024-03-02T01:55:22;99883.81;;;7.36;85.78
30919;BME280;76545;51.606;5.884;2024-03-02T01:57:49;99890.69;;;7.34;85.92
30919;BME280;76545;51.606;5.884;2024-03-02T02:00:16;99892.25;;;7.30;87.09
30919;BME280;76545;51.606;5.884;2024-03-02T02:02:43;99894.28;;;7.36;86.99
30919;BME280;76545;51.606;5.884;2024-03-02T02:05:09;99882.50;;;7.27;86.82
30919;BME280;76545;51.606;5.884;2024-03-02T02:07:36;99874.19;;;7.35;87.21
30919;BME280;76545;51.606;5.884;2024-03-02T02:10:02;99868.69;;;7.30;87.64
30919;BME280;76545;51.606;5.884;2024-03-02T02:12:28;99867.06;;;7.32;86.67
30919;BME280;76545;51.606;5.884;2024-03-02T02:14:54;99858.06;;;7.27;87.10
30919;BME280;76545;51.606;5.884;2024-03-02T02:17:20;99870.66;;;7.34;87.30
30919;BME280;76545;51.606;5.884;2024-03-02T02:19:46;99867.25;;;7.37;87.42
30919;BME280;76545;51.606;5.884;2024-03-02T02:22:12;99850.72;;;7.20;86.84
30919;BME280;76545;51.606;5.884;2024-03-02T02:24:42;99874.25;;;7.36;87.83
30919;BME280;76545;51.606;5.884;2024-03-02T02:27:08;99874.91;;;7.32;87.24
30919;BME280;76545;51.606;5.884;2024-03-02T02:29:36;99879.09;;;7.28;87.27
30919;BME280;76545;51.606;5.884;2024-03-02T02:32:02;99873.63;;;7.24;86.86
30919;BME280;76545;51.606;5.884;2024-03-02T02:34:28;99872.03;;;7.27;88.05
30919;BME280;76545;51.606;5.884;2024-03-02T02:36:54;99872.88;;;7.26;87.79
30919;BME280;76545;51.606;5.884;2024-03-02T02:39:21;99886.03;;;7.28;87.53
30919;BME280;76545;51.606;5.884;2024-03-02T02:41:50;99879.91;;;7.27;87.95
30919;BME280;76545;51.606;5.884;2024-03-02T02:44:16;99877.94;;;7.23;87.66
30919;BME280;76545;51.606;5.884;2024-03-02T02:46:42;99874.34;;;7.21;88.50
30919;BME280;76545;51.606;5.884;2024-03-02T02:49:08;99847.91;;;7.15;87.79
30919;BME280;76545;51.606;5.884;2024-03-02T02:51:34;99861.91;;;7.17;88.55
30919;BME280;76545;51.606;5.884;2024-03-02T02:54:00;99854.25;;;7.20;88.12
30919;BME280;76545;51.606;5.884;2024-03-02T02:56:26;99859.22;;;7.15;88.63
30919;BME280;76545;51.606;5.884;2024-03-02T02:58:52;99846.06;;;7.14;88.57
30919;BME280;76545;51.606;5.884;2024-03-02T03:01:18;99853.13;;;7.15;88.94
30919;BME280;76545;51.606;5.884;2024-03-02T03:03:45;99854.75;;;7.13;88.78
30919;BME280;76545;51.606;5.884;2024-03-02T03:06:11;99858.03;;;7.09;88.73
30919;BME280;76545;51.606;5.884;2024-03-02T03:08:38;99850.41;;;7.13;89.33
30919;BME280;76545;51.606;5.884;2024-03-02T03:11:04;99857.13;;;7.08;89.25
30919;BME280;76545;51.606;5.884;2024-03-02T03:13:34;99869.09;;;7.03;88.96
30919;BME280;76545;51.606;5.884;2024-03-02T03:16:00;99874.06;;;7.15;89.31
30919;BME280;76545;51.606;5.884;2024-03-02T03:18:26;99874.63;;;7.09;89.73
30919;BME280;76545;51.606;5.884;2024-03-02T03:20:52;99880.03;;;7.12;89.55
30919;BME280;76545;51.606;5.884;2024-03-02T03:23:18;99864.75;;;7.03;90.26
30919;BME280;76545;51.606;5.884;2024-03-02T03:25:44;99885.25;;;7.12;90.36
30919;BME280;76545;51.606;5.884;2024-03-02T03:28:10;99883.88;;;7.02;90.76
30919;BME280;76545;51.606;5.884;2024-03-02T03:30:37;99894.34;;;7.02;91.00
30919;BME280;76545;51.606;5.884;2024-03-02T03:33:04;99887.75;;;6.92;91.52
30919;BME280;76545;51.606;5.884;2024-03-02T03:35:32;99894.88;;;6.95;91.71
30919;BME280;76545;51.606;5.884;2024-03-02T03:37:58;99894.09;;;6.98;91.41
30919;BME280;76545;51.606;5.884;2024-03-02T03:40:24;99896.66;;;6.96;91.76
30919;BME280;76545;51.606;5.884;2024-03-02T03:42:50;99900.16;;;6.97;91.66
30919;BME280;76545;51.606;5.884;2024-03-02T03:45:16;99887.16;;;6.98;91.33
30919;BME280;76545;51.606;5.884;2024-03-02T03:47:42;99885.53;;;7.00;91.30
30919;BME280;76545;51.606;5.884;2024-03-02T03:50:09;99883.72;;;6.99;91.72
30919;BME280;76545;51.606;5.884;2024-03-02T03:52:35;99904.81;;;7.02;91.36
30919;BME280;76545;51.606;5.884;2024-03-02T03:55:01;99919.28;;;6.96;91.68
30919;BME280;76545;51.606;5.884;2024-03-02T03:57:29;99916.44;;;6.91;91.35
30919;BME280;76545;51.606;5.884;2024-03-02T03:59:55;99918.31;;;6.93;91.59
30919;BME280;76545;51.606;5.884;2024-03-02T04:02:21;99904.50;;;6.79;91.20
30919;BME280;76545;51.606;5.884;2024-03-02T04:04:47;99903.13;;;6.86;91.18
30919;BME280;76545;51.606;5.884;2024-03-02T04:07:13;99895.91;;;6.82;90.84
30919;BME280;76545;51.606;5.884;2024-03-02T04:09:39;99890.69;;;6.82;91.08
30919;BME280;76545;51.606;5.884;2024-03-02T04:12:05;99893.78;;;6.91;90.80
30919;BME280;76545;51.606;5.884;2024-03-02T04:14:31;99896.81;;;6.83;90.23
30919;BME280;76545;51.606;5.884;2024-03-02T04:16:57;99898.03;;;6.89;91.24
30919;BME280;76545;51.606;5.884;2024-03-02T04:19:24;99899.38;;;6.81;90.13
30919;BME280;76545;51.606;5.884;2024-03-02T04:21:50;99906.22;;;6.79;90.22
30919;BME280;76545;51.606;5.884;2024-03-02T04:24:16;99906.47;;;6.84;90.67
30919;BME280;76545;51.606;5.884;2024-03-02T04:26:42;99905.47;;;6.81;90.46
30919;BME280;76545;51.606;5.884;2024-03-02T04:29:08;99896.50;;;6.76;90.15
30919;BME280;76545;51.606;5.884;2024-03-02T04:31:34;99904.28;;;6.75;89.38
30919;BME280;76545;51.606;5.884;2024-03-02T04:34:00;99903.34;;;6.74;90.57
30919;BME280;76545;51.606;5.884;2024-03-02T04:36:26;99912.44;;;6.81;91.26
30919;BME280;76545;51.606;5.884;2024-03-02T04:38:52;99906.97;;;6.76;89.85
30919;BME280;76545;51.606;5.884;2024-03-02T04:41:18;99908.78;;;6.77;90.43
30919;BME280;76545;51.606;5.884;2024-03-02T04:43:44;99908.91;;;6.64;90.85
30919;BME280;76545;51.606;5.884;2024-03-02T04:46:10;99912.03;;;6.56;91.48
30919;BME280;76545;51.606;5.884;2024-03-02T04:48:36;99913.38;;;6.50;89.71
30919;BME280;76545;51.606;5.884;2024-03-02T04:51:02;99913.97;;;6.61;91.28
30919;BME280;76545;51.606;5.884;2024-03-02T04:53:28;99918.94;;;6.56;91.53
30919;BME280;76545;51.606;5.884;2024-03-02T04:55:54;99928.19;;;6.49;90.79
30919;BME280;76545;51.606;5.884;2024-03-02T04:58:49;99933.56;;;6.52;91.00
30919;BME280;76545;51.606;5.884;2024-03-02T05:01:15;99934.22;;;6.48;90.76
30919;BME280;76545;51.606;5.884;2024-03-02T05:03:43;99929.25;;;6.53;91.36
30919;BME280;76545;51.606;5.884;2024-03-02T05:06:09;99935.16;;;6.65;91.87
30919;BME280;76545;51.606;5.884;2024-03-02T05:08:35;99922.56;;;6.58;91.45
30919;BME280;76545;51.606;5.884;2024-03-02T05:11:01;99922.97;;;6.49;90.90
30919;BME280;76545;51.606;5.884;2024-03-02T05:13:47;99927.97;;;6.61;91.46
30919;BME280;76545;51.606;5.884;2024-03-02T05:16:13;99930.47;;;6.43;90.87
30919;BME280;76545;51.606;5.884;2024-03-02T05:18:39;99928.56;;;6.40;89.57
30919;BME280;76545;51.606;5.884;2024-03-02T05:21:05;99932.94;;;6.40;90.86
30919;BME280;76545;51.606;5.884;2024-03-02T05:23:31;99932.59;;;6.33;91.07
30919;BME280;76545;51.606;5.884;2024-03-02T05:25:57;99927.50;;;6.37;91.43
30919;BME280;76545;51.606;5.884;2024-03-02T05:28:23;99932.25;;;6.27;90.76
30919;BME280;76545;51.606;5.884;2024-03-02T05:30:49;99935.41;;;6.21;90.23
30919;BME280;76545;51.606;5.884;2024-03-02T05:33:15;99930.44;;;6.26;90.32
30919;BME280;76545;51.606;5.884;2024-03-02T05:35:43;99930.75;;;6.16;89.80
30919;BME280;76545;51.606;5.884;2024-03-02T05:38:10;99940.22;;;6.14;89.80
30919;BME280;76545;51.606;5.884;2024-03-02T05:40:36;99946.44;;;6.16;90.55
30919;BME280;76545;51.606;5.884;2024-03-02T05:43:02;99952.28;;;6.12;90.94
30919;BME280;76545;51.606;5.884;2024-03-02T05:45:28;99948.69;;;6.09;91.19
30919;BME280;76545;51.606;5.884;2024-03-02T05:47:54;99945.78;;;6.05;91.95
30919;BME280;76545;51.606;5.884;2024-03-02T05:50:20;99948.47;;;6.21;92.06
30919;BME280;76545;51.606;5.884;2024-03-02T05:52:46;99941.28;;;6.17;92.28
30919;BME280;76545;51.606;5.884;2024-03-02T05:55:12;99950.34;;;6.24;90.99
30919;BME280;76545;51.606;5.884;2024-03-02T05:57:38;99950.03;;;6.18;91.75
30919;BME280;76545;51.606;5.884;2024-03-02T06:00:15;99953.31;;;6.30;92.11
30919;BME280;76545;51.606;5.884;2024-03-02T06:02:42;99955.50;;;6.22;92.40
30919;BME280;76545;51.606;5.884;2024-03-02T06:05:11;99955.88;;;6.14;91.92
30919;BME280;76545;51.606;5.884;2024-03-02T06:07:37;99956.56;;;6.26;92.24
30919;BME280;76545;51.606;5.884;2024-03-02T06:10:03;99964.41;;;6.26;91.49
30919;BME280;76545;51.606;5.884;2024-03-02T06:12:31;99958.38;;;6.27;91.82
30919;BME280;76545;51.606;5.884;2024-03-02T06:14:57;99972.63;;;6.17;91.04
30919;BME280;76545;51.606;5.884;2024-03-02T06:17:23;99972.38;;;6.13;90.47
30919;BME280;76545;51.606;5.884;2024-03-02T06:19:49;99970.38;;;6.08;90.88
30919;BME280;76545;51.606;5.884;2024-03-02T06:22:15;99978.16;;;6.07;90.38
30919;BME280;76545;51.606;5.884;2024-03-02T06:24:41;99977.03;;;6.03;90.80
30919;BME280;76545;51.606;5.884;2024-03-02T06:27:07;99974.06;;;5.97;91.87
30919;BME280;76545;51.606;5.884;2024-03-02T06:29:33;99978.06;;;5.90;91.89
30919;BME280;76545;51.606;5.884;2024-03-02T06:31:59;99985.97;;;5.76;91.70
30919;BME280;76545;51.606;5.884;2024-03-02T06:34:25;99982.38;;;5.59;92.44
30919;BME280;76545;51.606;5.884;2024-03-02T06:36:51;99983.44;;;5.63;92.55
30919;BME280;76545;51.606;5.884;2024-03-02T06:39:17;99991.81;;;5.57;92.52
30919;BME280;76545;51.606;5.884;2024-03-02T06:41:43;99991.91;;;5.44;92.64
30919;BME280;76545;51.606;5.884;2024-03-02T06:44:09;99987.22;;;5.38;93.01
30919;BME280;76545;51.606;5.884;2024-03-02T06:46:35;99981.63;;;5.47;93.80
30919;BME280;76545;51.606;5.884;2024-03-02T06:49:01;99991.75;;;5.40;93.61
30919;BME280;76545;51.606;5.884;2024-03-02T06:51:28;100002.63;;;5.48;93.17
30919;BME280;76545;51.606;5.884;2024-03-02T06:53:54;99988.31;;;5.42;93.92
30919;BME280;76545;51.606;5.884;2024-03-02T06:56:21;100001.81;;;5.34;94.28
30919;BME280;76545;51.606;5.884;2024-03-02T06:58:48;100003.16;;;5.43;94.07
30919;BME280;76545;51.606;5.884;2024-03-02T07:01:14;99990.91;;;5.42;93.64
30919;BME280;76545;51.606;5.884;2024-03-02T07:03:40;100005.13;;;5.47;94.39
30919;BME280;76545;51.606;5.884;2024-03-02T07:06:06;100005.78;;;5.43;93.48
30919;BME280;76545;51.606;5.884;2024-03-02T07:08:33;100004.09;;;5.58;94.32
30919;BME280;76545;51.606;5.884;2024-03-02T07:10:59;100010.91;;;5.71;94.01
30919;BME280;76545;51.606;5.884;2024-03-02T07:13:25;100012.47;;;5.98;93.44
30919;BME280;76545;51.606;5.884;2024-03-02T07:15:51;100014.59;;;6.05;92.81
30919;BME280;76545;51.606;5.884;2024-03-02T07:18:29;100013.00;;;6.07;92.62
30919;BME280;76545;51.606;5.884;2024-03-02T07:20:56;100018.94;;;5.90;93.58
30919;BME280;76545;51.606;5.884;2024-03-02T07:23:27;100020.72;;;5.91;94.21
30919;BME280;76545;51.606;5.884;2024-03-02T07:25:53;100017.75;;;5.99;94.17
30919;BME280;76545;51.606;5.884;2024-03-02T07:28:23;100025.06;;;6.05;93.58
30919;BME280;76545;51.606;5.884;2024-03-02T07:31:02;100030.84;;;6.15;93.54
30919;BME280;76545;51.606;5.884;2024-03-02T07:33:33;100035.59;;;6.22;93.57
30919;BME280;76545;51.606;5.884;2024-03-02T07:36:00;100033.81;;;6.21;93.53
30919;BME280;76545;51.606;5.884;2024-03-02T07:38:28;100039.75;;;6.33;93.23
30919;BME280;76545;51.606;5.884;2024-03-02T07:40:55;100038.00;;;6.34;93.10
30919;BME280;76545;51.606;5.884;2024-03-02T07:43:21;100033.41;;;6.45;93.21
30919;BME280;76545;51.606;5.884;2024-03-02T07:45:48;100042.41;;;6.50;92.75
30919;BME280;76545;51.606;5.884;2024-03-02T07:48:15;100046.28;;;6.57;92.71
30919;BME280;76545;51.606;5.884;2024-03-02T07:50:41;100035.88;;;6.58;92.44
30919;BME280;76545;51.606;5.884;2024-03-02T07:53:07;100033.63;;;6.65;92.40
30919;BME280;76545;51.606;5.884;2024-03-02T07:55:34;100035.19;;;6.78;92.09
30919;BME280;76545;51.606;5.884;2024-03-02T07:58:00;100032.13;;;6.85;91.73
30919;BME280;76545;51.606;5.884;2024-03-02T08:00:27;100035.03;;;6.91;91.37
30919;BME280;76545;51.606;5.884;2024-03-02T08:02:56;100044.13;;;6.98;91.17
30919;BME280;76545;51.606;5.884;2024-03-02T08:05:22;100032.94;;;7.01;90.75
30919;BME280;76545;51.606;5.884;2024-03-02T08:07:48;100035.34;;;7.13;91.23
30919;BME280;76545;51.606;5.884;2024-03-02T08:10:18;100032.28;;;7.22;90.60
30919;BME280;76545;51.606;5.884;2024-03-02T08:12:45;100034.97;;;7.23;90.36
30919;BME280;76545;51.606;5.884;2024-03-02T08:15:11;100041.28;;;7.27;90.60
30919;BME280;76545;51.606;5.884;2024-03-02T08:17:39;100039.75;;;7.31;90.01
30919;BME280;76545;51.606;5.884;2024-03-02T08:20:11;100040.72;;;7.33;89.50
30919;BME280;76545;51.606;5.884;2024-03-02T08:22:37;100046.84;;;7.33;89.45
30919;BME280;76545;51.606;5.884;2024-03-02T08:25:04;100042.50;;;7.34;89.68
30919;BME280;76545;51.606;5.884;2024-03-02T08:27:31;100047.16;;;7.39;89.99
30919;BME280;76545;51.606;5.884;2024-03-02T08:29:58;100048.56;;;7.49;89.00
30919;BME280;76545;51.606;5.884;2024-03-02T08:32:24;100056.47;;;7.51;87.56
30919;BME280;76545;51.606;5.884;2024-03-02T08:34:50;100048.88;;;7.56;88.87
30919;BME280;76545;51.606;5.884;2024-03-02T08:37:16;100054.25;;;7.59;88.23
30919;BME280;76545;51.606;5.884;2024-03-02T08:39:42;100045.53;;;7.58;89.13
30919;BME280;76545;51.606;5.884;2024-03-02T08:42:08;100050.19;;;7.64;89.17
30919;BME280;76545;51.606;5.884;2024-03-02T08:44:34;100054.91;;;7.71;89.21
30919;BME280;76545;51.606;5.884;2024-03-02T08:47:00;100059.41;;;7.74;88.00
30919;BME280;76545;51.606;5.884;2024-03-02T08:49:26;100047.38;;;7.78;88.93
30919;BME280;76545;51.606;5.884;2024-03-02T08:51:52;100045.75;;;7.80;87.04
30919;BME280;76545;51.606;5.884;2024-03-02T08:54:24;100046.72;;;7.82;89.16
30919;BME280;76545;51.606;5.884;2024-03-02T08:56:50;100046.84;;;7.85;88.35
30919;BME280;76545;51.606;5.884;2024-03-02T08:59:16;100050.47;;;7.87;87.04
30919;BME280;76545;51.606;5.884;2024-03-02T09:01:42;100061.00;;;7.89;87.38
30919;BME280;76545;51.606;5.884;2024-03-02T09:04:09;100066.03;;;7.84;85.62
30919;BME280;76545;51.606;5.884;2024-03-02T09:06:35;100057.50;;;7.88;88.26
30919;BME280;76545;51.606;5.884;2024-03-02T09:09:01;100057.59;;;7.90;88.55
30919;BME280;76545;51.606;5.884;2024-03-02T09:11:27;100055.09;;;7.93;88.17
30919;BME280;76545;51.606;5.884;2024-03-02T09:13:53;100057.91;;;7.96;86.50
30919;BME280;76545;51.606;5.884;2024-03-02T09:16:20;100064.19;;;7.99;87.81
30919;BME280;76545;51.606;5.884;2024-03-02T09:18:46;100058.78;;;7.96;87.85
30919;BME280;76545;51.606;5.884;2024-03-02T09:21:13;100065.25;;;8.03;85.38
30919;BME280;76545;51.606;5.884;2024-03-02T09:23:39;100055.50;;;8.01;85.25
30919;BME280;76545;51.606;5.884;2024-03-02T09:26:06;100066.97;;;8.03;87.17
30919;BME280;76545;51.606;5.884;2024-03-02T09:28:32;100067.28;;;8.09;86.30
30919;BME280;76545;51.606;5.884;2024-03-02T09:30:58;100059.94;;;8.02;87.88
30919;BME280;76545;51.606;5.884;2024-03-02T09:33:24;100059.25;;;8.06;87.06
30919;BME280;76545;51.606;5.884;2024-03-02T09:35:50;100056.78;;;8.09;87.20
30919;BME280;76545;51.606;5.884;2024-03-02T09:38:16;100059.06;;;8.19;84.41
30919;BME280;76545;51.606;5.884;2024-03-02T09:40:42;100052.84;;;8.17;85.54
30919;BME280;76545;51.606;5.884;2024-03-02T09:43:09;100053.28;;;8.27;85.38
30919;BME280;76545;51.606;5.884;2024-03-02T09:45:35;100052.38;;;8.26;83.67
30919;BME280;76545;51.606;5.884;2024-03-02T09:48:02;100045.66;;;8.31;83.57
30919;BME280;76545;51.606;5.884;2024-03-02T09:50:28;100052.91;;;8.37;85.15
30919;BME280;76545;51.606;5.884;2024-03-02T09:52:54;100052.25;;;8.41;84.17
30919;BME280;76545;51.606;5.884;2024-03-02T09:55:20;100058.59;;;8.46;85.30
30919;BME280;76545;51.606;5.884;2024-03-02T09:57:46;100055.06;;;8.46;85.80
30919;BME280;76545;51.606;5.884;2024-03-02T10:00:14;100055.06;;;8.46;85.74
30919;BME280;76545;51.606;5.884;2024-03-02T10:02:41;100058.84;;;8.51;84.72
30919;BME280;76545;51.606;5.884;2024-03-02T10:05:08;100064.63;;;8.62;84.42
30919;BME280;76545;51.606;5.884;2024-03-02T10:07:34;100064.78;;;8.65;84.21
30919;BME280;76545;51.606;5.884;2024-03-02T10:10:13;100062.16;;;8.65;82.61
30919;BME280;76545;51.606;5.884;2024-03-02T10:12:39;100057.50;;;8.60;85.27
30919;BME280;76545;51.606;5.884;2024-03-02T10:15:06;100045.59;;;8.66;85.20
30919;BME280;76545;51.606;5.884;2024-03-02T10:17:33;100050.78;;;8.65;85.55
30919;BME280;76545;51.606;5.884;2024-03-02T10:19:59;100045.88;;;8.73;85.61
30919;BME280;76545;51.606;5.884;2024-03-02T10:22:25;100039.56;;;8.87;80.49
30919;BME280;76545;51.606;5.884;2024-03-02T10:24:52;100045.34;;;8.80;82.91
30919;BME280;76545;51.606;5.884;2024-03-02T10:27:23;100041.47;;;8.91;81.31
30919;BME280;76545;51.606;5.884;2024-03-02T10:29:52;100039.69;;;8.90;81.38
30919;BME280;76545;51.606;5.884;2024-03-02T10:32:18;100036.09;;;8.88;81.39
30919;BME280;76545;51.606;5.884;2024-03-02T10:34:45;100032.38;;;8.83;84.21
30919;BME280;76545;51.606;5.884;2024-03-02T10:37:11;100018.72;;;8.90;82.79
30919;BME280;76545;51.606;5.884;2024-03-02T10:39:38;100025.31;;;8.82;85.05
30919;BME280;76545;51.606;5.884;2024-03-02T10:42:08;100021.28;;;8.89;84.64
30919;BME280;76545;51.606;5.884;2024-03-02T10:44:34;100028.13;;;9.05;81.64
30919;BME280;76545;51.606;5.884;2024-03-02T10:47:02;100019.81;;;9.15;80.52
30919;BME280;76545;51.606;5.884;2024-03-02T10:49:30;100015.97;;;9.07;82.12
30919;BME280;76545;51.606;5.884;2024-03-02T10:52:00;100019.41;;;9.06;81.33
30919;BME280;76545;51.606;5.884;2024-03-02T10:54:27;100012.63;;;9.11;83.21
30919;BME280;76545;51.606;5.884;2024-03-02T10:56:58;100017.75;;;9.28;78.10
30919;BME280;76545;51.606;5.884;2024-03-02T10:59:33;100014.72;;;9.19;81.23
30919;BME280;76545;51.606;5.884;2024-03-02T11:02:01;100006.75;;;9.17;81.13
30919;BME280;76545;51.606;5.884;2024-03-02T11:04:29;100010.63;;;9.25;82.03
30919;BME280;76545;51.606;5.884;2024-03-02T11:07:02;100006.69;;;9.15;83.09
30919;BME280;76545;51.606;5.884;2024-03-02T11:09:29;100004.75;;;9.31;81.66
30919;BME280;76545;51.606;5.884;2024-03-02T11:14:31;100005.59;;;9.30;82.60
30919;BME280;76545;51.606;5.884;2024-03-02T11:17:01;100003.03;;;9.32;82.79
30919;BME280;76545;51.606;5.884;2024-03-02T11:19:29;100005.81;;;9.35;81.96
30919;BME280;76545;51.606;5.884;2024-03-02T11:21:56;100007.13;;;9.25;84.24
30919;BME280;76545;51.606;5.884;2024-03-02T11:26:53;100011.81;;;9.32;84.93
30919;BME280;76545;51.606;5.884;2024-03-02T11:32:01;100013.19;;;9.44;83.06
30919;BME280;76545;51.606;5.884;2024-03-02T11:34:32;99996.38;;;9.60;78.51
30919;BME280;76545;51.606;5.884;2024-03-02T11:36:59;99992.13;;;9.63;78.07
30919;BME280;76545;51.606;5.884;2024-03-02T11:39:26;100000.09;;;9.45;83.02
30919;BME280;76545;51.606;5.884;2024-03-02T11:41:52;99989.25;;;9.57;81.58
30919;BME280;76545;51.606;5.884;2024-03-02T11:44:18;99991.56;;;9.71;78.99
30919;BME280;76545;51.606;5.884;2024-03-02T11:46:45;99988.44;;;9.58;81.74
30919;BME280;76545;51.606;5.884;2024-03-02T11:49:35;99991.13;;;9.60;82.09
30919;BME280;76545;51.606;5.884;2024-03-02T11:52:01;99983.41;;;9.65;81.13
30919;BME280;76545;51.606;5.884;2024-03-02T11:54:30;99982.53;;;9.64;82.83
30919;BME280;76545;51.606;5.884;2024-03-02T11:57:01;99970.72;;;9.54;84.36
30919;BME280;76545;51.606;5.884;2024-03-02T11:59:29;99977.13;;;9.61;83.89
30919;BME280;76545;51.606;5.884;2024-03-02T12:01:56;99979.69;;;9.59;84.51
30919;BME280;76545;51.606;5.884;2024-03-02T12:04:23;99965.66;;;9.59;84.92
30919;BME280;76545;51.606;5.884;2024-03-02T12:07:00;99972.41;;;9.73;83.74
30919;BME280;76545;51.606;5.884;2024-03-02T12:09:27;99968.06;;;9.74;85.31
30919;BME280;76545;51.606;5.884;2024-03-02T12:12:09;99968.31;;;9.80;82.38
30919;BME280;76545;51.606;5.884;2024-03-02T12:14:36;99964.97;;;9.84;84.20
30919;BME280;76545;51.606;5.884;2024-03-02T12:17:03;99954.22;;;9.78;84.83
30919;BME280;76545;51.606;5.884;2024-03-02T12:19:31;99958.56;;;9.78;85.82
30919;BME280;76545;51.606;5.884;2024-03-02T12:21:57;99952.41;;;9.77;85.70
30919;BME280;76545;51.606;5.884;2024-03-02T12:24:24;99964.13;;;9.85;85.00
30919;BME280;76545;51.606;5.884;2024-03-02T12:26:50;99956.38;;;9.89;84.36
30919;BME280;76545;51.606;5.884;2024-03-02T12:29:19;99957.00;;;10.04;81.79
30919;BME280;76545;51.606;5.884;2024-03-02T12:31:45;99948.88;;;9.98;82.85
30919;BME280;76545;51.606;5.884;2024-03-02T12:34:13;99939.03;;;9.92;84.14
30919;BME280;76545;51.606;5.884;2024-03-02T12:36:40;99939.06;;;9.94;82.57
30919;BME280;76545;51.606;5.884;2024-03-02T12:39:10;99932.84;;;9.92;84.21
30919;BME280;76545;51.606;5.884;2024-03-02T12:41:37;99921.38;;;9.90;84.60
30919;BME280;76545;51.606;5.884;2024-03-02T12:44:05;99927.53;;;9.90;84.96
30919;BME280;76545;51.606;5.884;2024-03-02T12:46:32;99922.66;;;10.00;84.69
30919;BME280;76545;51.606;5.884;2024-03-02T12:48:58;99918.31;;;10.00;84.59
30919;BME280;76545;51.606;5.884;2024-03-02T12:51:30;99927.38;;;10.08;83.42
30919;BME280;76545;51.606;5.884;2024-03-02T12:53:59;99925.69;;;10.10;83.47
30919;BME280;76545;51.606;5.884;2024-03-02T12:56:26;99919.56;;;10.10;83.96
30919;BME280;76545;51.606;5.884;2024-03-02T12:58:56;99918.91;;;10.16;83.83
30919;BME280;76545;51.606;5.884;2024-03-02T13:01:22;99903.25;;;10.19;81.18
30919;BME280;76545;51.606;5.884;2024-03-02T13:03:49;99909.25;;;10.16;83.70
30919;BME280;76545;51.606;5.884;2024-03-02T13:06:17;99903.47;;;10.25;82.73
30919;BME280;76545;51.606;5.884;2024-03-02T13:08:44;99905.91;;;10.20;83.07
30919;BME280;76545;51.606;5.884;2024-03-02T13:11:11;99896.88;;;10.12;82.58
30919;BME280;76545;51.606;5.884;2024-03-02T13:13:41;99903.72;;;10.31;78.96
30919;BME280;76545;51.606;5.884;2024-03-02T13:16:10;99893.22;;;10.31;77.32
30919;BME280;76545;51.606;5.884;2024-03-02T13:18:39;99898.94;;;10.21;81.20
30919;BME280;76545;51.606;5.884;2024-03-02T13:21:05;99889.47;;;10.26;79.91
30919;BME280;76545;51.606;5.884;2024-03-02T13:23:31;99894.63;;;10.23;81.20